Vienna, VA

7:23 PM EDT on August 20, 2014 (GMT -0400)
Dustoff | Change Station
CLOSE
Current Station
Personal Weather Station
Location: Falls Church, VA
Elevation: 427 ft
Nearby Weather Stations

Elev 427 ft 38.89 °N, 77.20 °W | Updated 7 minutes ago

Mostly Cloudy
Mostly Cloudy
68.4 °F
Feels Like 68.4 °F
N
0.0
Wind Variable Wind from North
Gusts 0.0 mph

Today
High -- | Low -- °F
--% Chance of Precip.
Yesterday
High -- | Low -- °F
Precip. -- in
6:26 AM 7:56 PM
Waning Crescent, 18% visible
Pressure 29.97 in
Visibility 10.0 miles
Clouds Scattered Clouds 6000 ft
Scattered Clouds 11000 ft
Mostly Cloudy 20000 ft
Dew Point 66 °F
Humidity 93%
Rainfall 0.50 in
Snow Depth Not available.
UV 0.0 out of 12
Pollen 9.00 out of 12
Ozone Good
PM2.5 Good
Flu Activity Not available.
METAR KDCA 202252Z COR 18010KT 10SM SCT060CB SCT110 BKN200 24/19 A2997 RMK AO2 TSB2156E24RAE44 SLP149 CB E-S MOV SE CBMAM E-S MOV SE CB DSNT SE-S MOV SE P0002 T02440194

More Conditions Fewer Conditions

Pressure 29.97 in
Visibility 10.0 miles
Clouds Scattered Clouds 6000 ft
Scattered Clouds 11000 ft
Mostly Cloudy 20000 ft
Dew Point 66 °F
Humidity 93%
Rainfall 0.50 in
Snow Depth Not available.
UV 0.0 out of 12
Pollen 9.00 out of 12
Ozone Good
PM2.5 Good
Flu Activity Not available.
METAR KDCA 202252Z COR 18010KT 10SM SCT060CB SCT110 BKN200 24/19 A2997 RMK AO2 TSB2156E24RAE44 SLP149 CB E-S MOV SE CBMAM E-S MOV SE CB DSNT SE-S MOV SE P0002 T02440194

More Conditions Fewer Conditions

10-Day Weather Forecast

Almanac

Astronomy

Aug. 20, 2014 Rise Set
Actual Time 6:26 AM EDT 7:56 PM EDT
Civil Twilight 5:58 AM EDT 8:24 PM EDT
Nautical Twilight 5:25 AM EDT 8:58 PM EDT
Astronomical Twilight 4:49 AM EDT 9:34 PM EDT
Moon 2:06 AM EDT 4:39 PM EDT
Length of Visible Light 14h 25m
Length of Day
13h 29m
Tomorrow will be 2m 19s shorter.
Waning Crescent, 18% of the Moon is Illuminated
Today
Waning Crescent
Aug 25
New
Sep 2
First Quarter
Sep 8
Full
Sep 15
Last Quarter

Today's Extremes

State Highs State Lows

Community

WunderPhotos

Upload Photos

1,745,798 photos uploaded!

Nearby

Air Quality

  Air Quality AQ Index Pollutant
Yesterday Good
PM10
Yesterday Good
OZONE
Current Good
PM2.5
Current Good
OZONE
Wednesday Good
OZONE
Wednesday Good
PM2.5
Thursday Good
OZONE
Thursday Good
PM2.5
Friday Moderate
PM2.5
Friday Good
OZONE
Saturday Good
PM2.5
Saturday Good
OZONE

Snow Depth

Station Depth Elevation
No new snow has been reported.

Earthquake Activity

City Distance Mag. Time & Date
No recent earthquake activity has been reported nearby.
Minimum magnitude displayed is 2.5.

Coastal Water Temperatures

Place Temperature
Washington, DC 79.0 °F
Baltimore, MD 80.1 °F
Solomons Island, MD 81.0 °F

Nearby Weather Stations